Time;durP1;ratioP1;P1;durP2;ratioP2;P2;SDS_P1;SDS_P2;PMS_P1;PMS_P2;Temp;Humidity;BMP_temperature;BMP_pressure;BME280_temperature;BME280_humidity;BME280_pressure;Samples;Min_cycle;Max_cycle;Signal;HPM_P1;HPM_P2
2023/05/12 00:00:31;;;;;;;4.60;4.40;;;;;;;;;;4976074;28;20555;-62
2023/05/12 00:02:57;;;;;;;5.70;4.63;;;;;;;;;;4976189;28;20553;-63
2023/05/12 00:05:23;;;;;;;5.07;4.80;;;;;;;;;;4975873;28;20452;-63
2023/05/12 00:07:49;;;;;;;5.23;4.93;;;;;;;;;;4975996;28;20961;-62
2023/05/12 00:10:15;;;;;;;3.77;3.67;;;;;;;;;;4975969;28;20898;-62
2023/05/12 00:12:41;;;;;;;5.30;4.93;;;;;;;;;;4975644;28;20519;-62
2023/05/12 00:15:07;;;;;;;4.40;4.03;;;;;;;;;;4975875;28;20518;-62
2023/05/12 00:17:33;;;;;;;4.30;4.20;;;;;;;;;;4975516;28;20787;-62
2023/05/12 00:20:00;;;;;;;4.37;3.83;;;;;;;;;;4974523;28;20426;-62
2023/05/12 00:22:26;;;;;;;4.13;4.03;;;;;;;;;;4975599;28;20465;-62
2023/05/12 00:24:52;;;;;;;4.33;4.13;;;;;;;;;;4974320;28;20426;-62
2023/05/12 00:27:18;;;;;;;5.33;5.03;;;;;;;;;;4975675;28;20445;-62
2023/05/12 00:29:44;;;;;;;8.00;4.53;;;;;;;;;;4975447;28;20453;-62
2023/05/12 00:32:10;;;;;;;4.23;4.03;;;;;;;;;;4975641;28;20418;-62
2023/05/12 00:34:36;;;;;;;4.50;4.30;;;;;;;;;;4975428;28;20434;-62
2023/05/12 00:37:02;;;;;;;5.10;4.60;;;;;;;;;;4975619;28;20479;-63
2023/05/12 00:39:28;;;;;;;7.07;4.17;;;;;;;;;;4975579;28;20414;-62
2023/05/12 00:41:57;;;;;;;4.40;4.10;;;;;;;;;;4975214;28;20842;-62
2023/05/12 00:44:23;;;;;;;4.50;4.30;;;;;;;;;;4975319;28;20458;-63
2023/05/12 00:46:49;;;;;;;4.37;4.27;;;;;;;;;;4975242;28;20993;-62
2023/05/12 00:49:16;;;;;;;5.07;4.63;;;;;;;;;;4974567;28;20879;-62
2023/05/12 00:51:44;;;;;;;4.60;4.20;;;;;;;;;;4975049;28;20517;-62
2023/05/12 00:54:10;;;;;;;6.90;3.93;;;;;;;;;;4975395;28;20853;-62
2023/05/12 00:56:40;;;;;;;4.27;4.17;;;;;;;;;;4973909;28;20473;-63
2023/05/12 00:59:06;;;;;;;4.10;3.97;;;;;;;;;;4975190;28;20427;-62
2023/05/12 01:01:32;;;;;;;4.80;4.50;;;;;;;;;;4974896;28;20414;-63
2023/05/12 01:03:59;;;;;;;4.77;4.13;;;;;;;;;;4973827;28;21071;-63
2023/05/12 01:06:38;;;;;;;4.20;3.80;;;;;;;;;;4975000;28;20410;-63
2023/05/12 01:09:07;;;;;;;4.87;4.60;;;;;;;;;;4974950;28;20948;-62
2023/05/12 01:11:33;;;;;;;4.77;4.50;;;;;;;;;;4975102;28;20774;-63
2023/05/12 01:13:59;;;;;;;3.87;3.60;;;;;;;;;;4974674;28;20430;-62
2023/05/12 01:16:28;;;;;;;7.17;4.30;;;;;;;;;;4974830;28;20429;-63
2023/05/12 01:18:58;;;;;;;4.97;4.57;;;;;;;;;;4974591;28;20442;-62
2023/05/12 01:21:26;;;;;;;4.27;4.07;;;;;;;;;;4974602;28;20430;-63
2023/05/12 01:23:56;;;;;;;3.90;3.70;;;;;;;;;;4974172;28;20476;-63
2023/05/12 01:26:22;;;;;;;4.93;4.73;;;;;;;;;;4974533;28;20531;-61
2023/05/12 01:28:48;;;;;;;6.67;3.77;;;;;;;;;;4988480;28;20509;-62
2023/05/12 01:31:15;;;;;;;3.90;3.70;;;;;;;;;;4993959;28;20416;-62
2023/05/12 01:33:43;;;;;;;5.47;4.00;;;;;;;;;;4993728;28;20414;-61
2023/05/12 01:36:09;;;;;;;4.37;4.17;;;;;;;;;;4993894;28;20956;-61
2023/05/12 01:38:38;;;;;;;10.00;4.77;;;;;;;;;;4993879;28;20496;-61
2023/05/12 01:41:03;;;;;;;4.53;4.23;;;;;;;;;;4993826;28;20449;-61
2023/05/12 01:43:29;;;;;;;4.27;3.97;;;;;;;;;;4993600;28;20520;-61
2023/05/12 01:45:55;;;;;;;4.60;4.30;;;;;;;;;;4993746;28;20501;-62
2023/05/12 01:48:21;;;;;;;4.17;3.97;;;;;;;;;;4993789;28;20405;-61
2023/05/12 01:50:50;;;;;;;3.93;3.83;;;;;;;;;;4993586;28;20410;-62
2023/05/12 01:53:18;;;;;;;3.53;3.43;;;;;;;;;;4993898;28;20437;-62
2023/05/12 01:55:44;;;;;;;4.20;4.10;;;;;;;;;;4993376;28;20441;-62
2023/05/12 01:58:10;;;;;;;4.20;4.00;;;;;;;;;;4992324;28;20445;-62
2023/05/12 02:00:36;;;;;;;4.43;4.23;;;;;;;;;;4993217;28;20421;-62
2023/05/12 02:03:02;;;;;;;4.83;4.53;;;;;;;;;;4993192;28;20462;-62
2023/05/12 02:05:31;;;;;;;4.90;4.17;;;;;;;;;;4993183;28;20886;-62
2023/05/12 02:07:59;;;;;;;4.20;3.90;;;;;;;;;;4993227;28;20444;-62
2023/05/12 02:10:28;;;;;;;4.70;4.27;;;;;;;;;;4993164;28;20422;-62
2023/05/12 02:12:53;;;;;;;4.90;4.70;;;;;;;;;;4993215;28;20498;-62
2023/05/12 02:15:20;;;;;;;5.90;4.60;;;;;;;;;;4993230;28;20528;-63
2023/05/12 02:17:46;;;;;;;5.33;5.00;;;;;;;;;;4993262;28;20417;-62
2023/05/12 02:20:12;;;;;;;7.93;5.60;;;;;;;;;;4992970;28;20449;-62
2023/05/12 02:22:38;;;;;;;5.50;5.10;;;;;;;;;;4991960;28;20517;-62
2023/05/12 02:25:04;;;;;;;5.57;5.10;;;;;;;;;;4993079;28;20503;-62
2023/05/12 02:27:31;;;;;;;4.40;4.30;;;;;;;;;;4993121;28;20418;-62
2023/05/12 02:29:57;;;;;;;6.03;4.97;;;;;;;;;;4992899;28;20406;-62
2023/05/12 02:32:26;;;;;;;4.30;4.10;;;;;;;;;;4992958;28;20801;-62
2023/05/12 02:34:52;;;;;;;5.60;5.20;;;;;;;;;;4992957;28;20905;-62
2023/05/12 02:37:18;;;;;;;5.73;5.23;;;;;;;;;;4992864;28;20433;-62
2023/05/12 02:39:44;;;;;;;6.30;5.80;;;;;;;;;;4992930;28;20769;-62
2023/05/12 02:42:10;;;;;;;6.07;5.67;;;;;;;;;;4992841;28;20441;-62
2023/05/12 02:44:36;;;;;;;6.50;5.60;;;;;;;;;;4992922;28;20432;-62
2023/05/12 02:47:04;;;;;;;6.10;5.80;;;;;;;;;;4992647;28;20410;-62
2023/05/12 02:49:31;;;;;;;7.33;6.67;;;;;;;;;;4992799;28;20940;-62
2023/05/12 02:51:57;;;;;;;6.43;5.93;;;;;;;;;;4992855;28;20418;-62
2023/05/12 02:54:23;;;;;;;7.07;6.57;;;;;;;;;;4992608;28;20524;-62
2023/05/12 02:56:49;;;;;;;7.73;7.17;;;;;;;;;;4992787;28;20420;-62
2023/05/12 02:59:17;;;;;;;7.50;6.90;;;;;;;;;;4992628;28;20413;-62
2023/05/12 03:01:43;;;;;;;7.80;6.90;;;;;;;;;;4992668;28;20421;-62
2023/05/12 03:04:09;;;;;;;8.03;7.17;;;;;;;;;;4992570;28;20465;-62
2023/05/12 03:06:38;;;;;;;6.40;6.00;;;;;;;;;;4992667;28;20421;-62
2023/05/12 03:09:06;;;;;;;6.37;5.97;;;;;;;;;;4992581;28;20502;-62
2023/05/12 03:11:32;;;;;;;6.60;6.20;;;;;;;;;;4992748;28;20469;-62
2023/05/12 03:13:58;;;;;;;7.27;6.83;;;;;;;;;;4995320;28;20954;-62
2023/05/12 03:16:24;;;;;;;7.17;6.67;;;;;;;;;;4996193;28;20441;-61
2023/05/12 03:18:52;;;;;;;7.80;7.10;;;;;;;;;;4996457;28;20488;-61
2023/05/12 03:21:21;;;;;;;6.30;5.80;;;;;;;;;;4996082;28;20417;-62
2023/05/12 03:23:47;;;;;;;7.03;6.53;;;;;;;;;;4996136;28;20468;-62
2023/05/12 03:26:13;;;;;;;7.30;6.80;;;;;;;;;;4996092;28;20476;-62
2023/05/12 03:28:38;;;;;;;6.40;5.90;;;;;;;;;;4996028;28;20410;-62
2023/05/12 03:31:04;;;;;;;7.83;7.27;;;;;;;;;;4995973;28;20763;-62
2023/05/12 03:33:30;;;;;;;8.50;7.37;;;;;;;;;;4994605;28;20499;-62
2023/05/12 03:35:56;;;;;;;8.67;7.97;;;;;;;;;;4995793;28;20417;-61
2023/05/12 03:38:22;;;;;;;8.40;7.03;;;;;;;;;;4995857;28;20456;-62
2023/05/12 03:40:51;;;;;;;8.80;8.13;;;;;;;;;;4995985;28;20503;-62
2023/05/12 03:43:17;;;;;;;8.10;7.57;;;;;;;;;;4995682;28;20476;-61
2023/05/12 03:45:43;;;;;;;8.67;7.83;;;;;;;;;;4995737;28;20406;-62
2023/05/12 03:48:09;;;;;;;12.20;7.50;;;;;;;;;;4995724;28;20908;-61
2023/05/12 03:50:35;;;;;;;9.30;8.50;;;;;;;;;;4995810;28;20896;-62
2023/05/12 03:53:03;;;;;;;11.47;8.40;;;;;;;;;;4995761;28;20476;-62
2023/05/12 03:55:32;;;;;;;14.97;8.00;;;;;;;;;;4995614;28;20517;-62
2023/05/12 03:57:58;;;;;;;8.20;7.70;;;;;;;;;;4995451;28;20410;-61
2023/05/12 04:00:24;;;;;;;9.07;8.17;;;;;;;;;;4995328;28;20448;-62
2023/05/12 04:02:50;;;;;;;7.60;7.10;;;;;;;;;;4995426;28;20515;-62
2023/05/12 04:05:18;;;;;;;9.53;6.80;;;;;;;;;;4995360;28;20449;-62
2023/05/12 04:07:44;;;;;;;7.77;7.07;;;;;;;;;;4995342;28;20504;-61
2023/05/12 04:10:10;;;;;;;12.20;6.57;;;;;;;;;;4995296;28;20449;-62
2023/05/12 04:12:36;;;;;;;6.50;6.00;;;;;;;;;;4995201;28;20500;-61
2023/05/12 04:15:05;;;;;;;7.53;6.90;;;;;;;;;;4995343;28;20419;-62
2023/05/12 04:17:31;;;;;;;7.33;6.83;;;;;;;;;;4995137;28;20420;-61
2023/05/12 04:19:59;;;;;;;8.03;7.53;;;;;;;;;;4995149;28;20409;-61
2023/05/12 04:22:25;;;;;;;9.47;7.30;;;;;;;;;;4993738;28;20424;-62
2023/05/12 04:24:54;;;;;;;15.57;8.17;;;;;;;;;;4993754;28;20444;-62
2023/05/12 04:27:20;;;;;;;8.93;8.23;;;;;;;;;;4995016;28;20892;-62
2023/05/12 04:29:46;;;;;;;10.40;9.30;;;;;;;;;;4995136;28;20433;-62
2023/05/12 04:32:12;;;;;;;9.60;8.80;;;;;;;;;;4994878;28;20410;-62
2023/05/12 04:34:38;;;;;;;10.37;9.43;;;;;;;;;;4994852;28;20448;-62
2023/05/12 04:37:04;;;;;;;13.43;9.07;;;;;;;;;;4995105;28;20504;-62
2023/05/12 04:39:30;;;;;;;9.03;8.23;;;;;;;;;;4994571;28;20573;-62
2023/05/12 04:41:56;;;;;;;9.00;8.10;;;;;;;;;;4994905;28;20501;-62
2023/05/12 04:44:22;;;;;;;8.47;7.73;;;;;;;;;;4994685;28;20476;-62
2023/05/12 04:46:52;;;;;;;8.00;7.50;;;;;;;;;;4993534;28;20414;-62
2023/05/12 04:49:18;;;;;;;12.60;7.90;;;;;;;;;;4994688;28;20429;-61
2023/05/12 04:51:44;;;;;;;13.73;7.97;;;;;;;;;;4994516;28;20441;-62
2023/05/12 04:54:11;;;;;;;8.63;8.03;;;;;;;;;;4994594;28;20425;-61
2023/05/12 04:56:37;;;;;;;9.13;8.33;;;;;;;;;;4994460;28;20441;-61
2023/05/12 04:59:05;;;;;;;8.50;7.80;;;;;;;;;;4994302;28;20513;-62
2023/05/12 05:01:31;;;;;;;8.87;7.93;;;;;;;;;;4994235;28;20441;-62
2023/05/12 05:03:57;;;;;;;9.37;8.47;;;;;;;;;;4994377;28;20496;-62
2023/05/12 05:06:23;;;;;;;7.50;6.97;;;;;;;;;;4994168;28;20992;-62
2023/05/12 05:08:52;;;;;;;8.93;7.10;;;;;;;;;;4994277;28;20520;-61
2023/05/12 05:11:18;;;;;;;7.27;6.87;;;;;;;;;;4994249;28;20409;-62
2023/05/12 05:13:46;;;;;;;9.83;7.33;;;;;;;;;;4994108;28;20807;-62
2023/05/12 05:16:12;;;;;;;7.50;6.80;;;;;;;;;;4994193;28;20424;-62
2023/05/12 05:18:45;;;;;;;8.70;6.97;;;;;;;;;;4992644;28;20792;-62
2023/05/12 05:21:11;;;;;;;8.13;7.53;;;;;;;;;;4992895;28;20417;-62
2023/05/12 05:23:37;;;;;;;6.90;6.30;;;;;;;;;;4993776;28;20515;-63
2023/05/12 05:26:03;;;;;;;13.27;10.57;;;;;;;;;;4994025;28;20771;-62
2023/05/12 05:28:31;;;;;;;9.83;8.70;;;;;;;;;;4993803;28;20409;-62
2023/05/12 05:30:57;;;;;;;8.53;7.87;;;;;;;;;;4993931;28;20889;-62
2023/05/12 05:33:25;;;;;;;8.70;8.00;;;;;;;;;;4993712;28;20417;-62
2023/05/12 05:35:55;;;;;;;10.83;8.70;;;;;;;;;;4993578;28;20524;-62
2023/05/12 05:38:23;;;;;;;10.77;9.47;;;;;;;;;;4993715;28;20417;-62
2023/05/12 05:40:49;;;;;;;12.57;10.13;;;;;;;;;;4992396;28;20512;-62
2023/05/12 05:43:15;;;;;;;10.37;9.27;;;;;;;;;;4993480;28;20964;-62
2023/05/12 05:45:41;;;;;;;11.73;10.33;;;;;;;;;;4993520;28;20420;-62
2023/05/12 05:48:07;;;;;;;10.20;9.30;;;;;;;;;;4993297;28;20406;-62
2023/05/12 05:50:33;;;;;;;10.50;9.60;;;;;;;;;;4993584;28;20410;-62
2023/05/12 05:53:01;;;;;;;12.33;11.20;;;;;;;;;;4993499;28;20863;-62
2023/05/12 05:55:27;;;;;;;11.90;10.40;;;;;;;;;;4993319;28;20425;-62
2023/05/12 05:57:53;;;;;;;11.97;10.77;;;;;;;;;;4993373;28;20549;-62
2023/05/12 06:00:19;;;;;;;10.30;9.40;;;;;;;;;;4993291;28;20437;-62
2023/05/12 06:02:45;;;;;;;11.23;10.13;;;;;;;;;;4993096;28;20472;-62
2023/05/12 06:05:11;;;;;;;10.80;9.70;;;;;;;;;;4993367;28;20414;-61
2023/05/12 06:07:38;;;;;;;11.43;10.50;;;;;;;;;;4993219;28;20533;-62
2023/05/12 06:10:08;;;;;;;11.57;10.40;;;;;;;;;;4993187;28;20490;-62
2023/05/12 06:12:34;;;;;;;16.07;12.50;;;;;;;;;;4992918;28;20438;-62
2023/05/12 06:15:00;;;;;;;30.70;25.90;;;;;;;;;;4992899;28;20472;-62
2023/05/12 06:17:26;;;;;;;15.93;13.20;;;;;;;;;;4992894;28;20418;-62
2023/05/12 06:19:52;;;;;;;16.50;14.80;;;;;;;;;;4993008;28;20957;-62
2023/05/12 06:22:18;;;;;;;14.10;12.60;;;;;;;;;;4993026;28;20447;-62
2023/05/12 06:24:44;;;;;;;22.83;14.23;;;;;;;;;;4992858;28;20687;-61
2023/05/12 06:27:10;;;;;;;13.00;11.63;;;;;;;;;;4993256;28;20501;-62
2023/05/12 06:29:36;;;;;;;13.90;12.50;;;;;;;;;;4993009;28;20418;-62
2023/05/12 06:32:02;;;;;;;14.47;12.87;;;;;;;;;;4992702;28;20452;-62
2023/05/12 06:34:28;;;;;;;20.00;12.80;;;;;;;;;;4992819;28;20426;-61
2023/05/12 06:36:54;;;;;;;15.03;11.90;;;;;;;;;;4991357;28;20421;-62
2023/05/12 06:39:20;;;;;;;13.70;12.30;;;;;;;;;;4992995;28;20419;-62
2023/05/12 06:41:46;;;;;;;14.37;12.10;;;;;;;;;;4992888;28;20561;-62
2023/05/12 06:44:17;;;;;;;13.73;12.43;;;;;;;;;;4992503;28;20471;-63
2023/05/12 06:46:43;;;;;;;13.60;12.40;;;;;;;;;;4992860;28;20878;-62
2023/05/12 06:49:09;;;;;;;15.60;13.67;;;;;;;;;;4996029;28;20435;-61
2023/05/12 06:51:35;;;;;;;13.87;12.47;;;;;;;;;;4996670;28;20506;-63
2023/05/12 06:54:01;;;;;;;15.10;12.90;;;;;;;;;;4996497;28;20439;-62
2023/05/12 06:56:28;;;;;;;20.20;13.57;;;;;;;;;;4996842;28;20507;-64
2023/05/12 06:58:59;;;;;;;18.07;12.83;;;;;;;;;;4996820;28;20451;-64
2023/05/12 07:01:26;;;;;;;16.53;12.53;;;;;;;;;;4996846;28;20399;-63
2023/05/12 07:03:52;;;;;;;13.30;12.07;;;;;;;;;;4996914;28;20466;-61
2023/05/12 07:06:18;;;;;;;14.03;12.77;;;;;;;;;;4997602;28;20412;-60
2023/05/12 07:08:44;;;;;;;13.60;11.60;;;;;;;;;;4996714;28;20407;-61
2023/05/12 07:11:10;;;;;;;12.80;11.50;;;;;;;;;;4996746;28;20522;-61
2023/05/12 07:13:37;;;;;;;24.50;12.67;;;;;;;;;;4996403;28;20464;-61
2023/05/12 07:16:03;;;;;;;15.03;12.50;;;;;;;;;;4996138;28;21020;-60
2023/05/12 07:18:29;;;;;;;14.13;11.90;;;;;;;;;;4996508;28;20502;-61
2023/05/12 07:20:55;;;;;;;17.80;11.97;;;;;;;;;;4996376;28;20416;-64
2023/05/12 07:23:25;;;;;;;17.17;12.70;;;;;;;;;;4996309;28;20561;-64
2023/05/12 07:25:51;;;;;;;14.03;12.07;;;;;;;;;;4996164;28;20420;-62
2023/05/12 07:28:20;;;;;;;14.17;12.80;;;;;;;;;;4995957;28;20895;-62
2023/05/12 07:30:46;;;;;;;17.10;13.90;;;;;;;;;;4996146;28;20405;-62
2023/05/12 07:33:12;;;;;;;18.17;14.70;;;;;;;;;;4995923;28;20479;-62
2023/05/12 07:35:38;;;;;;;18.97;13.10;;;;;;;;;;4994397;28;20832;-62
2023/05/12 07:38:08;;;;;;;14.37;13.10;;;;;;;;;;4995172;28;20416;-62
2023/05/12 07:40:34;;;;;;;13.70;12.27;;;;;;;;;;4995634;28;20429;-62
2023/05/12 07:43:01;;;;;;;14.80;11.40;;;;;;;;;;4995418;28;20659;-62
2023/05/12 07:45:27;;;;;;;14.37;12.50;;;;;;;;;;4995490;28;20478;-62
2023/05/12 07:47:53;;;;;;;13.67;11.93;;;;;;;;;;4995416;28;20417;-62
2023/05/12 07:50:20;;;;;;;14.27;11.97;;;;;;;;;;4995316;28;20824;-62
2023/05/12 07:52:52;;;;;;;15.27;12.33;;;;;;;;;;4996016;28;20421;-62
2023/05/12 07:55:19;;;;;;;13.20;12.00;;;;;;;;;;4995888;28;20444;-62
2023/05/12 07:57:45;;;;;;;15.73;12.87;;;;;;;;;;4994136;28;20429;-62
2023/05/12 08:00:12;;;;;;;14.93;12.97;;;;;;;;;;4995321;28;20436;-62
2023/05/12 08:02:38;;;;;;;14.40;13.00;;;;;;;;;;4995598;28;20424;-62
2023/05/12 08:05:05;;;;;;;12.47;11.23;;;;;;;;;;4995255;28;20902;-62
2023/05/12 08:07:31;;;;;;;13.27;11.47;;;;;;;;;;4995634;28;20417;-62
2023/05/12 08:09:57;;;;;;;13.90;12.50;;;;;;;;;;4995412;28;20417;-62
2023/05/12 08:12:23;;;;;;;13.80;11.50;;;;;;;;;;4995208;28;20499;-62
2023/05/12 08:14:49;;;;;;;16.30;12.10;;;;;;;;;;4994249;28;20914;-62
2023/05/12 08:17:15;;;;;;;12.10;11.00;;;;;;;;;;4995319;28;20496;-62
2023/05/12 08:19:41;;;;;;;10.70;9.70;;;;;;;;;;4995022;28;20440;-62
2023/05/12 08:22:09;;;;;;;11.90;10.70;;;;;;;;;;4994941;28;20484;-62
2023/05/12 08:24:35;;;;;;;13.40;11.40;;;;;;;;;;4995187;28;20464;-62
2023/05/12 08:27:01;;;;;;;11.53;9.80;;;;;;;;;;4994716;28;20921;-62
2023/05/12 08:29:27;;;;;;;12.03;10.37;;;;;;;;;;4995080;28;20532;-62
2023/05/12 08:31:53;;;;;;;9.27;8.47;;;;;;;;;;4995248;28;20424;-62
2023/05/12 08:34:19;;;;;;;10.83;9.50;;;;;;;;;;4994621;28;20893;-63
2023/05/12 08:36:46;;;;;;;10.63;9.53;;;;;;;;;;4995339;28;20421;-63
2023/05/12 08:39:12;;;;;;;10.87;9.83;;;;;;;;;;4994954;28;20414;-63
2023/05/12 08:41:56;;;;;;;15.67;14.10;;;;;;;;;;4995138;28;20413;-63
2023/05/12 08:44:24;;;;;;;23.73;18.80;;;;;;;;;;4994612;28;20560;-63
2023/05/12 08:46:51;;;;;;;28.13;19.13;;;;;;;;;;4994979;28;20425;-63
2023/05/12 08:49:20;;;;;;;33.27;18.23;;;;;;;;;;4994860;28;20833;-63
2023/05/12 08:51:47;;;;;;;20.20;17.90;;;;;;;;;;4994977;28;20524;-63
2023/05/12 08:54:13;;;;;;;21.83;17.80;;;;;;;;;;4995066;28;20601;-62
2023/05/12 08:56:40;;;;;;;17.77;15.40;;;;;;;;;;4994911;28;20863;-62
2023/05/12 08:59:08;;;;;;;15.40;13.87;;;;;;;;;;4994751;28;20424;-62
2023/05/12 09:01:34;;;;;;;14.07;12.70;;;;;;;;;;4994207;28;20805;-62
2023/05/12 09:04:03;;;;;;;13.67;12.37;;;;;;;;;;4994707;28;20967;-62
2023/05/12 09:06:29;;;;;;;10.70;9.90;;;;;;;;;;4994554;28;20413;-62
2023/05/12 09:08:56;;;;;;;13.53;12.13;;;;;;;;;;4994259;28;20416;-62
2023/05/12 09:11:24;;;;;;;15.60;14.17;;;;;;;;;;4994053;28;20807;-62
2023/05/12 09:14:05;;;;;;;15.20;13.80;;;;;;;;;;4994577;28;21015;-62
2023/05/12 09:16:32;;;;;;;14.73;13.33;;;;;;;;;;4994743;28;20545;-62
2023/05/12 09:18:59;;;;;;;13.13;11.80;;;;;;;;;;4994328;28;20512;-62
2023/05/12 09:21:26;;;;;;;10.23;9.43;;;;;;;;;;4994620;28;20777;-62
2023/05/12 09:23:55;;;;;;;9.43;8.77;;;;;;;;;;4994652;28;20534;-62
2023/05/12 09:26:22;;;;;;;7.90;7.40;;;;;;;;;;4994315;28;20410;-62
2023/05/12 09:28:48;;;;;;;8.40;7.83;;;;;;;;;;4994508;28;20809;-62
2023/05/12 09:31:18;;;;;;;7.17;6.43;;;;;;;;;;4994407;28;20434;-62
2023/05/12 09:33:44;;;;;;;9.23;8.43;;;;;;;;;;4993103;28;20542;-62
2023/05/12 09:36:10;;;;;;;8.80;8.20;;;;;;;;;;4994636;28;20533;-62
2023/05/12 09:38:36;;;;;;;11.07;7.90;;;;;;;;;;4994241;28;20446;-62
2023/05/12 09:41:02;;;;;;;10.73;8.03;;;;;;;;;;4992869;28;20438;-62
2023/05/12 09:43:30;;;;;;;8.43;7.40;;;;;;;;;;4993881;28;20956;-62
2023/05/12 09:45:56;;;;;;;8.00;7.50;;;;;;;;;;4993972;28;20433;-62
2023/05/12 09:48:22;;;;;;;8.20;7.37;;;;;;;;;;4993394;28;20893;-62
2023/05/12 09:50:52;;;;;;;7.87;7.37;;;;;;;;;;4993275;28;20511;-63
2023/05/12 09:53:19;;;;;;;8.17;7.47;;;;;;;;;;4993603;28;20418;-62
2023/05/12 09:55:45;;;;;;;9.00;8.20;;;;;;;;;;4993513;28;20483;-62
2023/05/12 09:58:15;;;;;;;11.40;9.40;;;;;;;;;;4994078;28;20469;-62
2023/05/12 10:00:41;;;;;;;9.50;8.90;;;;;;;;;;4993797;28;20441;-62
2023/05/12 10:03:16;;;;;;;8.17;7.57;;;;;;;;;;4993532;28;20966;-63
2023/05/12 10:05:50;;;;;;;7.93;7.47;;;;;;;;;;4993689;28;20413;-62
2023/05/12 10:08:24;;;;;;;7.40;7.00;;;;;;;;;;4993878;28;20447;-62
2023/05/12 10:10:51;;;;;;;7.30;6.90;;;;;;;;;;4993625;28;20414;-62
2023/05/12 10:13:17;;;;;;;6.60;6.23;;;;;;;;;;4993628;28;20603;-62
2023/05/12 10:15:45;;;;;;;9.93;7.27;;;;;;;;;;4993394;28;20889;-62
2023/05/12 10:18:11;;;;;;;7.17;6.80;;;;;;;;;;4993334;28;20445;-62
2023/05/12 10:20:37;;;;;;;6.57;6.17;;;;;;;;;;4993688;28;20485;-62
2023/05/12 10:23:04;;;;;;;9.33;7.53;;;;;;;;;;4992645;28;20475;-62
2023/05/12 10:25:30;;;;;;;8.10;7.43;;;;;;;;;;4993534;28;20411;-62
2023/05/12 10:27:57;;;;;;;11.37;9.73;;;;;;;;;;4993043;28;20759;-62
2023/05/12 10:30:23;;;;;;;10.63;9.70;;;;;;;;;;4993471;28;20910;-62
2023/05/12 10:32:49;;;;;;;9.00;8.30;;;;;;;;;;4992035;28;20807;-63
2023/05/12 10:35:16;;;;;;;7.77;7.37;;;;;;;;;;4993356;28;20416;-62
2023/05/12 10:37:43;;;;;;;11.20;8.07;;;;;;;;;;4993687;28;20420;-62
2023/05/12 10:40:10;;;;;;;28.03;20.43;;;;;;;;;;4992144;28;20434;-62
2023/05/12 10:42:37;;;;;;;14.80;8.17;;;;;;;;;;4993373;28;20485;-62
2023/05/12 10:45:13;;;;;;;10.70;9.70;;;;;;;;;;4993327;28;20408;-62
2023/05/12 10:47:40;;;;;;;10.00;9.13;;;;;;;;;;4993679;28;20745;-62
2023/05/12 10:50:12;;;;;;;9.60;8.70;;;;;;;;;;4993404;28;20418;-62
2023/05/12 10:52:38;;;;;;;10.27;9.43;;;;;;;;;;4993289;28;20392;-62
2023/05/12 10:55:04;;;;;;;9.60;8.20;;;;;;;;;;4993226;28;20414;-62
2023/05/12 10:57:31;;;;;;;7.90;7.23;;;;;;;;;;4993076;28;20922;-63
2023/05/12 10:59:58;;;;;;;9.60;8.90;;;;;;;;;;4993054;28;20412;-62
2023/05/12 11:02:27;;;;;;;7.37;7.07;;;;;;;;;;4992904;28;20415;-62
2023/05/12 11:04:57;;;;;;;7.63;7.03;;;;;;;;;;4993000;28;20416;-62
2023/05/12 11:07:26;;;;;;;6.50;6.20;;;;;;;;;;4993438;28;20490;-62
2023/05/12 11:09:53;;;;;;;5.60;5.20;;;;;;;;;;4993243;28;20392;-63
2023/05/12 11:12:20;;;;;;;6.27;5.87;;;;;;;;;;4992750;28;20455;-62
2023/05/12 11:14:46;;;;;;;5.83;5.50;;;;;;;;;;4992871;28;20816;-63
2023/05/12 11:17:12;;;;;;;5.50;5.10;;;;;;;;;;4992750;28;20414;-62
2023/05/12 11:19:39;;;;;;;5.40;5.10;;;;;;;;;;4992876;28;20444;-62
2023/05/12 11:22:06;;;;;;;6.43;5.47;;;;;;;;;;4992974;28;20426;-63
2023/05/12 11:24:32;;;;;;;5.90;5.60;;;;;;;;;;4993141;28;20507;-62
2023/05/12 11:26:58;;;;;;;4.80;4.60;;;;;;;;;;4992862;28;20887;-63
2023/05/12 11:29:26;;;;;;;6.33;5.93;;;;;;;;;;4992742;28;20445;-62
2023/05/12 11:31:52;;;;;;;6.17;5.77;;;;;;;;;;4992689;28;20887;-62
2023/05/12 11:34:22;;;;;;;5.87;5.57;;;;;;;;;;4994579;28;20443;-62
2023/05/12 11:36:50;;;;;;;5.30;5.10;;;;;;;;;;4995992;28;20418;-62
2023/05/12 11:39:16;;;;;;;4.90;4.50;;;;;;;;;;4996001;28;20549;-62
2023/05/12 11:41:43;;;;;;;10.43;4.37;;;;;;;;;;4996304;28;20418;-62
2023/05/12 11:44:17;;;;;;;8.70;5.03;;;;;;;;;;4996059;28;20495;-62
2023/05/12 11:47:03;;;;;;;4.00;3.80;;;;;;;;;;4996072;28;20819;-62
2023/05/12 11:49:30;;;;;;;5.13;4.93;;;;;;;;;;4996207;28;20440;-62
2023/05/12 11:52:02;;;;;;;4.33;3.93;;;;;;;;;;4994703;28;20437;-63
2023/05/12 11:54:29;;;;;;;3.47;3.20;;;;;;;;;;4996037;28;20986;-62
2023/05/12 11:56:58;;;;;;;5.80;3.37;;;;;;;;;;4996382;28;20422;-63
2023/05/12 11:59:31;;;;;;;7.17;3.40;;;;;;;;;;4995015;28;20541;-63
2023/05/12 12:01:58;;;;;;;3.43;3.17;;;;;;;;;;4995279;28;20439;-63
2023/05/12 12:04:50;;;;;;;3.50;3.40;;;;;;;;;;4996836;28;20477;-63
2023/05/12 12:07:16;;;;;;;2.97;2.97;;;;;;;;;;4993877;28;20437;-63
2023/05/12 12:09:42;;;;;;;3.27;3.17;;;;;;;;;;4995562;28;20537;-63
2023/05/12 12:12:10;;;;;;;1.97;1.97;;;;;;;;;;4996330;28;20421;-63
2023/05/12 12:14:37;;;;;;;2.80;2.80;;;;;;;;;;4995871;28;20492;-63
2023/05/12 12:17:06;;;;;;;2.77;2.67;;;;;;;;;;4995951;28;20937;-63
2023/05/12 12:19:32;;;;;;;2.83;2.70;;;;;;;;;;4996074;28;20890;-63
2023/05/12 12:22:02;;;;;;;2.43;2.40;;;;;;;;;;4996646;28;20519;-63
2023/05/12 12:24:31;;;;;;;2.00;2.00;;;;;;;;;;4996076;28;21040;-63
2023/05/12 12:26:59;;;;;;;2.40;2.30;;;;;;;;;;4996159;28;20428;-64
2023/05/12 12:29:27;;;;;;;1.90;1.90;;;;;;;;;;4996109;28;20474;-63
2023/05/12 12:31:53;;;;;;;1.80;1.80;;;;;;;;;;4996241;28;20433;-63
2023/05/12 12:34:19;;;;;;;3.50;2.53;;;;;;;;;;4995113;28;20447;-63
2023/05/12 12:36:46;;;;;;;2.60;2.60;;;;;;;;;;4995649;28;20507;-63
2023/05/12 12:39:13;;;;;;;2.40;2.40;;;;;;;;;;4995310;28;20444;-63
2023/05/12 12:41:39;;;;;;;14.53;3.60;;;;;;;;;;4995729;28;20786;-63
2023/05/12 12:44:08;;;;;;;4.50;4.30;;;;;;;;;;4995446;28;20669;-63
2023/05/12 12:46:34;;;;;;;2.90;2.73;;;;;;;;;;4994861;28;20410;-63
2023/05/12 12:49:00;;;;;;;3.60;3.30;;;;;;;;;;4995079;28;20931;-63
2023/05/12 12:51:27;;;;;;;3.90;3.60;;;;;;;;;;4994985;28;20474;-63
2023/05/12 12:53:53;;;;;;;3.80;3.70;;;;;;;;;;4994816;28;20901;-63
2023/05/12 12:56:20;;;;;;;3.23;3.23;;;;;;;;;;4994825;28;20408;-63
2023/05/12 12:58:46;;;;;;;3.70;3.57;;;;;;;;;;4994894;28;20418;-64
2023/05/12 13:01:12;;;;;;;3.30;3.20;;;;;;;;;;4994921;28;20505;-63
2023/05/12 13:03:41;;;;;;;4.40;4.20;;;;;;;;;;4995006;28;20472;-63
2023/05/12 13:06:07;;;;;;;5.33;5.03;;;;;;;;;;4995120;28;20416;-63
2023/05/12 13:08:33;;;;;;;7.63;5.73;;;;;;;;;;4994755;28;20418;-63
2023/05/12 13:11:01;;;;;;;5.07;4.70;;;;;;;;;;4994047;28;20978;-63
2023/05/12 13:13:27;;;;;;;6.43;6.13;;;;;;;;;;4993925;28;20460;-63
2023/05/12 13:15:54;;;;;;;9.73;7.07;;;;;;;;;;4994141;28;20924;-63
2023/05/12 13:18:20;;;;;;;6.50;6.20;;;;;;;;;;4994281;28;20999;-64
2023/05/12 13:20:46;;;;;;;5.33;4.97;;;;;;;;;;4994095;28;20453;-63
2023/05/12 13:23:12;;;;;;;6.67;6.20;;;;;;;;;;4994156;28;20468;-63
2023/05/12 13:25:40;;;;;;;6.20;5.73;;;;;;;;;;4994094;28;20468;-63
2023/05/12 13:28:07;;;;;;;5.00;4.90;;;;;;;;;;4994184;28;20441;-63
2023/05/12 13:30:33;;;;;;;5.57;5.37;;;;;;;;;;4994224;28;20518;-63
2023/05/12 13:32:59;;;;;;;6.10;5.63;;;;;;;;;;4994074;28;20483;-63
2023/05/12 13:35:25;;;;;;;6.03;5.63;;;;;;;;;;4993716;28;20415;-63
2023/05/12 13:37:54;;;;;;;5.17;5.00;;;;;;;;;;4994122;28;20479;-63
2023/05/12 13:40:20;;;;;;;6.90;6.30;;;;;;;;;;4994306;28;20443;-63
2023/05/12 13:42:46;;;;;;;5.53;5.33;;;;;;;;;;4993870;28;20420;-63
2023/05/12 13:45:12;;;;;;;5.83;5.53;;;;;;;;;;4994153;28;20527;-63
2023/05/12 13:47:38;;;;;;;6.13;5.77;;;;;;;;;;4994105;28;20503;-63
2023/05/12 13:50:05;;;;;;;6.70;6.27;;;;;;;;;;4993579;28;20411;-63
2023/05/12 13:52:31;;;;;;;4.97;4.77;;;;;;;;;;4993620;28;20474;-63
2023/05/12 13:54:59;;;;;;;4.10;4.00;;;;;;;;;;4993858;28;20943;-63
2023/05/12 13:57:25;;;;;;;4.70;4.30;;;;;;;;;;4993944;28;20546;-63
2023/05/12 13:59:53;;;;;;;4.87;4.67;;;;;;;;;;4993793;28;20444;-63
2023/05/12 14:02:19;;;;;;;3.33;3.23;;;;;;;;;;4993781;28;20442;-63
2023/05/12 14:04:45;;;;;;;3.70;3.60;;;;;;;;;;4993402;28;20510;-63
2023/05/12 14:07:11;;;;;;;3.60;3.00;;;;;;;;;;4994266;28;20438;-63
2023/05/12 14:09:37;;;;;;;3.30;3.20;;;;;;;;;;4993270;28;20422;-63
2023/05/12 14:12:04;;;;;;;3.43;3.23;;;;;;;;;;4993452;28;20808;-63
2023/05/12 14:14:33;;;;;;;4.40;4.20;;;;;;;;;;4993374;28;20446;-63
2023/05/12 14:17:01;;;;;;;4.90;4.70;;;;;;;;;;4993537;28;20420;-63
2023/05/12 14:19:27;;;;;;;4.53;4.43;;;;;;;;;;4993950;28;20470;-63
2023/05/12 14:21:53;;;;;;;5.63;5.30;;;;;;;;;;4993678;28;20903;-62
2023/05/12 14:24:19;;;;;;;8.03;7.50;;;;;;;;;;4993929;28;20476;-64
2023/05/12 14:26:50;;;;;;;6.37;5.90;;;;;;;;;;4991778;28;21057;-63
2023/05/12 14:29:17;;;;;;;5.90;5.60;;;;;;;;;;4993388;28;20424;-63
2023/05/12 14:31:43;;;;;;;5.47;5.27;;;;;;;;;;4993750;28;20409;-63
2023/05/12 14:34:12;;;;;;;6.33;6.03;;;;;;;;;;4993675;28;20420;-64